CheckWX is a tool to help pilots better visualize weather data.  It is not intended as a substitute for an official pre-flight weather briefing.

06:37:07 UTC

KCNI METAR
Cherokee County Airport
Canton, Georgia, USA
Current

27 mins ago

KCNI 190610Z AUTO 07003KT 10SM OVC040 21/16 A3017 RMK AO2
Observed
Sep-19 @ 06:10 UTC
Wind
  • 070° at 3 KTS
Visibility
10 SM
Flight Rules
VFR
Cloud Levels
  • Overcast at 4,000' AGL
Temperature
21°C / 70°F
Dewpoint
16°C / 61°F
Humidity
73%
Altimeter
30.17" Hg
Pressure
1021.72 hPa
Previous

47 mins ago

KCNI 190550Z AUTO 07003KT 10SM OVC038 21/16 A3018 RMK AO2
Observed
Sep-19 @ 05:50 UTC
Wind
  • 070° at 3 KTS
Visibility
10 SM
Flight Rules
VFR
Cloud Levels
  • Overcast at 3,800' AGL
Temperature
21°C / 70°F
Dewpoint
16°C / 61°F
Humidity
73%
Altimeter
30.18" Hg
Pressure
1022.02 hPa
Previous

1 hour ago

KCNI 190530Z AUTO 08003KT 10SM OVC036 21/16 A3018 RMK AO2
Observed
Sep-19 @ 05:30 UTC
Wind
  • 080° at 3 KTS
Visibility
10 SM
Flight Rules
VFR
Cloud Levels
  • Overcast at 3,600' AGL
Temperature
21°C / 70°F
Dewpoint
16°C / 61°F
Humidity
73%
Altimeter
30.18" Hg
Pressure
1022.02 hPa